Etusivu
METAR-TAF:

METAR-TAF

Lentoasemat :

Erzurum, Turkki

Leveyspiiri: 39-55N, Pituuspiiri: 041-16E, korkeus merenpinnasta: 1756 m

Tämänhetkinen sää

Tämä raportti tehtiin 24 minuuttia sitten, kello 20.20 UTC
Tuuli 2 kn eri suunnista
Lämpötila 14°C
Kosteus 44%
Ilmanpaine 1019 hPa
Näkyvyys 10 km tai enemmän
ei pilviä alle 1500 m:ssä eikä cumulonimbus-pilviä

METAR: LTCE 222020Z VRB02KT CAVOK 14/02 Q1019 NOSIG RMK RWY08R 10005KT RWY26R 24004KT 220V290 RWY08L /////KT

Aika: 23:44 (20:44 UTC)

Sääennuste

Tämä raportti tehtiin 4 tuntia ja 4 minuuttia sitten, kello 16.40 UTC
Ennuste voimassa 22. päivästä klo 18 UTC - 23. päivään klo 18 UTC
Tuuli 9 kn koillisesta
Näkyvyys 10 km tai enemmän
Hajanaisia pilviä 3000 ft:n korkeudessa
Tulossa
22. päivästä klo 18 UTC - 22. päivään klo 20 UTC
Näkyvyys 10 km tai enemmän
ei pilviä alle 1500 m:ssä eikä cumulonimbus-pilviä

TAF: LTCE 221640Z 2218/2318 04009KT 9999 SCT030 BECMG 2218/2220 CAVOK

Säähavainnot ja -ennusteet yli 4000 lentoasemalta (METAR- ja TAF-raportit).

Käytössä olevat sääasemat on merkitty karttaan keltaisilla ja punaisilla pisteillä.

Aseta hiiri pisteen päälle nähdäksesi sääaseman nimen.

Klikkaa sitten nähdäksesi säähavainnot ja -ennusteet.

Kartan vaihtaminen: klikkaa mustalla rastilla varustettuja vihreitä pisteitä, niin voit zoomata sisään; viivalla varustettua vihreää pistettä, niin voit zoomata ulos tai vihreitä nuolia, niin pääset viereisille kartoille.


METAR-TAF: